sensor_id;sensor_type;location;lat;lon;timestamp;temperature;humidity
17918;DHT22;9084;50.956;3.106;2023-03-14T00:01:20;10.70;99.90
17918;DHT22;9084;50.956;3.106;2023-03-14T00:03:46;10.70;99.90
17918;DHT22;9084;50.956;3.106;2023-03-14T00:06:12;10.60;99.90
17918;DHT22;9084;50.956;3.106;2023-03-14T00:08:39;10.50;99.90
17918;DHT22;9084;50.956;3.106;2023-03-14T00:11:07;10.50;99.90
17918;DHT22;9084;50.956;3.106;2023-03-14T00:13:35;10.40;99.90
17918;DHT22;9084;50.956;3.106;2023-03-14T00:16:06;10.40;99.90
17918;DHT22;9084;50.956;3.106;2023-03-14T00:18:32;10.40;99.90
17918;DHT22;9084;50.956;3.106;2023-03-14T00:21:02;10.40;99.90
17918;DHT22;9084;50.956;3.106;2023-03-14T00:23:29;10.50;99.90
17918;DHT22;9084;50.956;3.106;2023-03-14T00:26:11;10.50;99.90
17918;DHT22;9084;50.956;3.106;2023-03-14T00:28:39;10.50;99.90
17918;DHT22;9084;50.956;3.106;2023-03-14T00:31:10;10.60;99.90
17918;DHT22;9084;50.956;3.106;2023-03-14T00:33:39;10.60;99.90
17918;DHT22;9084;50.956;3.106;2023-03-14T00:36:09;10.70;99.90
17918;DHT22;9084;50.956;3.106;2023-03-14T00:38:44;10.70;99.90
17918;DHT22;9084;50.956;3.106;2023-03-14T00:41:13;10.70;99.90
17918;DHT22;9084;50.956;3.106;2023-03-14T00:43:43;10.70;99.90
17918;DHT22;9084;50.956;3.106;2023-03-14T00:46:12;10.70;99.90
17918;DHT22;9084;50.956;3.106;2023-03-14T00:48:38;10.70;99.90
17918;DHT22;9084;50.956;3.106;2023-03-14T00:51:04;10.70;99.90
17918;DHT22;9084;50.956;3.106;2023-03-14T00:53:37;10.70;99.90
17918;DHT22;9084;50.956;3.106;2023-03-14T00:56:09;10.60;99.90
17918;DHT22;9084;50.956;3.106;2023-03-14T00:58:37;10.60;99.90
17918;DHT22;9084;50.956;3.106;2023-03-14T01:01:12;10.50;99.90
17918;DHT22;9084;50.956;3.106;2023-03-14T01:03:40;10.50;99.90
17918;DHT22;9084;50.956;3.106;2023-03-14T01:06:21;10.60;99.90
17918;DHT22;9084;50.956;3.106;2023-03-14T01:08:47;10.60;99.90
17918;DHT22;9084;50.956;3.106;2023-03-14T01:11:16;10.60;99.90
17918;DHT22;9084;50.956;3.106;2023-03-14T01:13:42;10.60;99.90
17918;DHT22;9084;50.956;3.106;2023-03-14T01:16:10;10.70;99.90
17918;DHT22;9084;50.956;3.106;2023-03-14T01:18:37;10.70;99.90
17918;DHT22;9084;50.956;3.106;2023-03-14T01:21:17;10.70;99.90
17918;DHT22;9084;50.956;3.106;2023-03-14T01:23:43;10.80;99.90
17918;DHT22;9084;50.956;3.106;2023-03-14T01:26:13;10.80;99.90
17918;DHT22;9084;50.956;3.106;2023-03-14T01:28:45;10.90;99.90
17918;DHT22;9084;50.956;3.106;2023-03-14T01:31:11;10.90;99.90
17918;DHT22;9084;50.956;3.106;2023-03-14T01:33:40;11.00;99.90
17918;DHT22;9084;50.956;3.106;2023-03-14T01:36:09;11.00;99.90
17918;DHT22;9084;50.956;3.106;2023-03-14T01:38:37;11.00;99.90
17918;DHT22;9084;50.956;3.106;2023-03-14T01:41:06;10.90;99.90
17918;DHT22;9084;50.956;3.106;2023-03-14T01:43:34;10.90;99.90
17918;DHT22;9084;50.956;3.106;2023-03-14T01:48:42;10.90;99.90
17918;DHT22;9084;50.956;3.106;2023-03-14T01:51:17;11.00;99.90
17918;DHT22;9084;50.956;3.106;2023-03-14T01:53:44;11.00;99.90
17918;DHT22;9084;50.956;3.106;2023-03-14T01:56:11;11.00;99.90
17918;DHT22;9084;50.956;3.106;2023-03-14T01:58:41;11.00;99.90
17918;DHT22;9084;50.956;3.106;2023-03-14T02:01:11;11.00;99.90
17918;DHT22;9084;50.956;3.106;2023-03-14T02:03:52;11.00;99.90
17918;DHT22;9084;50.956;3.106;2023-03-14T02:06:22;11.00;99.90
17918;DHT22;9084;50.956;3.106;2023-03-14T02:08:50;11.00;99.90
17918;DHT22;9084;50.956;3.106;2023-03-14T02:11:19;11.00;99.90
17918;DHT22;9084;50.956;3.106;2023-03-14T02:13:45;10.90;99.90
17918;DHT22;9084;50.956;3.106;2023-03-14T02:16:11;10.80;99.90
17918;DHT22;9084;50.956;3.106;2023-03-14T02:18:42;10.80;99.90
17918;DHT22;9084;50.956;3.106;2023-03-14T02:21:16;10.70;99.90
17918;DHT22;9084;50.956;3.106;2023-03-14T02:23:51;10.70;99.90
17918;DHT22;9084;50.956;3.106;2023-03-14T02:26:22;10.70;99.90
17918;DHT22;9084;50.956;3.106;2023-03-14T02:28:50;10.70;99.90
17918;DHT22;9084;50.956;3.106;2023-03-14T02:31:16;10.70;99.90
17918;DHT22;9084;50.956;3.106;2023-03-14T02:33:44;10.70;99.90
17918;DHT22;9084;50.956;3.106;2023-03-14T02:36:13;10.70;99.90
17918;DHT22;9084;50.956;3.106;2023-03-14T02:41:10;10.70;99.90
17918;DHT22;9084;50.956;3.106;2023-03-14T02:43:38;10.70;99.90
17918;DHT22;9084;50.956;3.106;2023-03-14T02:46:13;10.70;99.90
17918;DHT22;9084;50.956;3.106;2023-03-14T02:48:43;10.70;99.90
17918;DHT22;9084;50.956;3.106;2023-03-14T02:51:12;10.70;99.90
17918;DHT22;9084;50.956;3.106;2023-03-14T02:53:39;10.80;99.90
17918;DHT22;9084;50.956;3.106;2023-03-14T02:56:07;10.70;99.90
17918;DHT22;9084;50.956;3.106;2023-03-14T02:58:33;10.70;99.90
17918;DHT22;9084;50.956;3.106;2023-03-14T03:00:59;10.80;99.90
17918;DHT22;9084;50.956;3.106;2023-03-14T03:03:25;10.80;99.90
17918;DHT22;9084;50.956;3.106;2023-03-14T03:05:52;10.80;99.90
17918;DHT22;9084;50.956;3.106;2023-03-14T03:08:19;10.80;99.90
17918;DHT22;9084;50.956;3.106;2023-03-14T03:10:45;10.80;99.90
17918;DHT22;9084;50.956;3.106;2023-03-14T03:13:11;10.90;99.90
17918;DHT22;9084;50.956;3.106;2023-03-14T03:15:37;10.90;99.90
17918;DHT22;9084;50.956;3.106;2023-03-14T03:18:03;10.90;99.90
17918;DHT22;9084;50.956;3.106;2023-03-14T03:20:29;10.80;99.90
17918;DHT22;9084;50.956;3.106;2023-03-14T03:22:55;10.90;99.90
17918;DHT22;9084;50.956;3.106;2023-03-14T03:25:22;10.80;99.90
17918;DHT22;9084;50.956;3.106;2023-03-14T03:27:48;10.80;99.90
17918;DHT22;9084;50.956;3.106;2023-03-14T03:30:16;10.80;99.90
17918;DHT22;9084;50.956;3.106;2023-03-14T03:32:44;10.80;99.90
17918;DHT22;9084;50.956;3.106;2023-03-14T03:35:15;10.80;99.90
17918;DHT22;9084;50.956;3.106;2023-03-14T03:37:41;10.80;99.90
17918;DHT22;9084;50.956;3.106;2023-03-14T03:40:07;10.80;99.90
17918;DHT22;9084;50.956;3.106;2023-03-14T03:42:35;10.80;99.90
17918;DHT22;9084;50.956;3.106;2023-03-14T03:45:04;10.80;99.90
17918;DHT22;9084;50.956;3.106;2023-03-14T03:47:31;10.70;99.90
17918;DHT22;9084;50.956;3.106;2023-03-14T03:49:56;10.70;99.90
17918;DHT22;9084;50.956;3.106;2023-03-14T03:52:22;10.70;99.90
17918;DHT22;9084;50.956;3.106;2023-03-14T03:54:50;10.80;99.90
17918;DHT22;9084;50.956;3.106;2023-03-14T03:57:16;10.80;99.90
17918;DHT22;9084;50.956;3.106;2023-03-14T03:59:41;10.80;99.90
17918;DHT22;9084;50.956;3.106;2023-03-14T04:02:07;10.80;99.90
17918;DHT22;9084;50.956;3.106;2023-03-14T04:04:35;10.80;99.90
17918;DHT22;9084;50.956;3.106;2023-03-14T04:07:01;10.80;99.90
17918;DHT22;9084;50.956;3.106;2023-03-14T04:09:27;10.80;99.90
17918;DHT22;9084;50.956;3.106;2023-03-14T04:11:52;10.90;99.90
17918;DHT22;9084;50.956;3.106;2023-03-14T04:14:20;10.80;99.90
17918;DHT22;9084;50.956;3.106;2023-03-14T04:16:48;10.90;99.90
17918;DHT22;9084;50.956;3.106;2023-03-14T04:19:14;10.90;99.90
17918;DHT22;9084;50.956;3.106;2023-03-14T04:21:40;10.90;99.90
17918;DHT22;9084;50.956;3.106;2023-03-14T04:24:10;10.90;99.90
17918;DHT22;9084;50.956;3.106;2023-03-14T04:26:36;10.90;99.90
17918;DHT22;9084;50.956;3.106;2023-03-14T04:29:02;10.90;99.90
17918;DHT22;9084;50.956;3.106;2023-03-14T04:31:30;10.90;99.90
17918;DHT22;9084;50.956;3.106;2023-03-14T04:33:57;10.90;99.90
17918;DHT22;9084;50.956;3.106;2023-03-14T04:36:26;10.80;99.90
17918;DHT22;9084;50.956;3.106;2023-03-14T04:38:51;10.70;99.90
17918;DHT22;9084;50.956;3.106;2023-03-14T04:41:19;10.60;99.90
17918;DHT22;9084;50.956;3.106;2023-03-14T04:43:45;10.50;99.90
17918;DHT22;9084;50.956;3.106;2023-03-14T04:46:10;10.50;99.90
17918;DHT22;9084;50.956;3.106;2023-03-14T04:48:36;10.40;99.90
17918;DHT22;9084;50.956;3.106;2023-03-14T04:51:03;10.30;99.90
17918;DHT22;9084;50.956;3.106;2023-03-14T04:53:32;10.30;99.90
17918;DHT22;9084;50.956;3.106;2023-03-14T04:55:57;10.30;99.90
17918;DHT22;9084;50.956;3.106;2023-03-14T04:58:25;10.30;99.90
17918;DHT22;9084;50.956;3.106;2023-03-14T05:00:51;10.20;99.90
17918;DHT22;9084;50.956;3.106;2023-03-14T05:03:19;10.20;99.90
17918;DHT22;9084;50.956;3.106;2023-03-14T05:05:45;10.20;99.90
17918;DHT22;9084;50.956;3.106;2023-03-14T05:08:11;10.20;99.90
17918;DHT22;9084;50.956;3.106;2023-03-14T05:10:37;10.10;99.90
17918;DHT22;9084;50.956;3.106;2023-03-14T05:13:05;9.70;99.90
17918;DHT22;9084;50.956;3.106;2023-03-14T05:15:31;9.20;99.90
17918;DHT22;9084;50.956;3.106;2023-03-14T05:17:59;8.90;99.90
17918;DHT22;9084;50.956;3.106;2023-03-14T05:20:27;8.60;99.90
17918;DHT22;9084;50.956;3.106;2023-03-14T05:22:55;8.40;99.90
17918;DHT22;9084;50.956;3.106;2023-03-14T05:25:23;8.30;99.90
17918;DHT22;9084;50.956;3.106;2023-03-14T05:27:53;8.20;99.90
17918;DHT22;9084;50.956;3.106;2023-03-14T05:30:20;8.10;99.90
17918;DHT22;9084;50.956;3.106;2023-03-14T05:32:47;8.10;99.90
17918;DHT22;9084;50.956;3.106;2023-03-14T05:35:13;8.00;99.90
17918;DHT22;9084;50.956;3.106;2023-03-14T05:37:41;8.00;99.90
17918;DHT22;9084;50.956;3.106;2023-03-14T05:40:07;8.00;99.90
17918;DHT22;9084;50.956;3.106;2023-03-14T05:42:36;8.00;99.90
17918;DHT22;9084;50.956;3.106;2023-03-14T05:45:02;8.00;99.90
17918;DHT22;9084;50.956;3.106;2023-03-14T05:47:28;8.00;99.90
17918;DHT22;9084;50.956;3.106;2023-03-14T05:49:53;8.00;99.90
17918;DHT22;9084;50.956;3.106;2023-03-14T05:52:19;8.00;99.90
17918;DHT22;9084;50.956;3.106;2023-03-14T05:54:45;7.90;99.90
17918;DHT22;9084;50.956;3.106;2023-03-14T05:57:11;7.90;99.90
17918;DHT22;9084;50.956;3.106;2023-03-14T05:59:39;7.90;99.90
17918;DHT22;9084;50.956;3.106;2023-03-14T06:02:04;7.90;99.90
17918;DHT22;9084;50.956;3.106;2023-03-14T06:04:32;7.80;99.90
17918;DHT22;9084;50.956;3.106;2023-03-14T06:07:00;7.80;99.90
17918;DHT22;9084;50.956;3.106;2023-03-14T06:09:28;7.80;99.90
17918;DHT22;9084;50.956;3.106;2023-03-14T06:11:56;7.90;99.90
17918;DHT22;9084;50.956;3.106;2023-03-14T06:14:22;7.80;99.90
17918;DHT22;9084;50.956;3.106;2023-03-14T06:16:49;7.80;99.90
17918;DHT22;9084;50.956;3.106;2023-03-14T06:19:16;7.80;99.90
17918;DHT22;9084;50.956;3.106;2023-03-14T06:21:42;7.80;99.90
17918;DHT22;9084;50.956;3.106;2023-03-14T06:24:09;7.80;99.90
17918;DHT22;9084;50.956;3.106;2023-03-14T06:26:35;7.80;99.90
17918;DHT22;9084;50.956;3.106;2023-03-14T06:29:05;7.70;99.90
17918;DHT22;9084;50.956;3.106;2023-03-14T06:31:31;7.70;99.90
17918;DHT22;9084;50.956;3.106;2023-03-14T06:33:57;7.70;99.90
17918;DHT22;9084;50.956;3.106;2023-03-14T06:36:23;7.60;99.90
17918;DHT22;9084;50.956;3.106;2023-03-14T06:38:48;7.50;99.90
17918;DHT22;9084;50.956;3.106;2023-03-14T06:41:14;7.50;99.90
17918;DHT22;9084;50.956;3.106;2023-03-14T06:43:42;7.50;99.90
17918;DHT22;9084;50.956;3.106;2023-03-14T06:46:08;7.50;99.90
17918;DHT22;9084;50.956;3.106;2023-03-14T06:48:36;7.50;99.90
17918;DHT22;9084;50.956;3.106;2023-03-14T06:51:01;7.40;99.90
17918;DHT22;9084;50.956;3.106;2023-03-14T06:53:29;7.40;99.90
17918;DHT22;9084;50.956;3.106;2023-03-14T06:55:57;7.30;99.90
17918;DHT22;9084;50.956;3.106;2023-03-14T06:58:23;7.30;99.90
17918;DHT22;9084;50.956;3.106;2023-03-14T07:00:48;7.30;99.90
17918;DHT22;9084;50.956;3.106;2023-03-14T07:03:14;7.30;99.90
17918;DHT22;9084;50.956;3.106;2023-03-14T07:05:40;7.30;99.90
17918;DHT22;9084;50.956;3.106;2023-03-14T07:08:07;7.30;99.90
17918;DHT22;9084;50.956;3.106;2023-03-14T07:10:34;7.30;99.90
17918;DHT22;9084;50.956;3.106;2023-03-14T07:12:59;7.40;99.90
17918;DHT22;9084;50.956;3.106;2023-03-14T07:15:25;7.40;99.90
17918;DHT22;9084;50.956;3.106;2023-03-14T07:17:51;7.40;99.90
17918;DHT22;9084;50.956;3.106;2023-03-14T07:20:17;7.40;99.90
17918;DHT22;9084;50.956;3.106;2023-03-14T07:22:42;7.30;99.90
17918;DHT22;9084;50.956;3.106;2023-03-14T07:25:08;7.30;99.90
17918;DHT22;9084;50.956;3.106;2023-03-14T07:27:37;7.30;99.90
17918;DHT22;9084;50.956;3.106;2023-03-14T07:30:04;7.30;99.90
17918;DHT22;9084;50.956;3.106;2023-03-14T07:32:30;7.30;99.90
17918;DHT22;9084;50.956;3.106;2023-03-14T07:34:55;7.30;99.90
17918;DHT22;9084;50.956;3.106;2023-03-14T07:37:21;7.20;99.90
17918;DHT22;9084;50.956;3.106;2023-03-14T07:39:47;7.20;99.90
17918;DHT22;9084;50.956;3.106;2023-03-14T07:42:15;7.20;99.90
17918;DHT22;9084;50.956;3.106;2023-03-14T07:44:41;7.20;99.90
17918;DHT22;9084;50.956;3.106;2023-03-14T07:47:06;7.20;99.90
17918;DHT22;9084;50.956;3.106;2023-03-14T07:49:32;7.10;99.90
17918;DHT22;9084;50.956;3.106;2023-03-14T07:52:00;7.10;99.90
17918;DHT22;9084;50.956;3.106;2023-03-14T07:54:26;7.00;99.90
17918;DHT22;9084;50.956;3.106;2023-03-14T07:56:51;7.10;99.90
17918;DHT22;9084;50.956;3.106;2023-03-14T07:59:20;7.10;99.90
17918;DHT22;9084;50.956;3.106;2023-03-14T08:01:46;7.10;99.90
17918;DHT22;9084;50.956;3.106;2023-03-14T08:04:14;7.20;99.90
17918;DHT22;9084;50.956;3.106;2023-03-14T08:06:42;7.20;99.90
17918;DHT22;9084;50.956;3.106;2023-03-14T08:09:08;7.20;99.90
17918;DHT22;9084;50.956;3.106;2023-03-14T08:11:36;7.30;99.90
17918;DHT22;9084;50.956;3.106;2023-03-14T08:14:04;7.30;99.90
17918;DHT22;9084;50.956;3.106;2023-03-14T08:16:32;7.30;99.90
17918;DHT22;9084;50.956;3.106;2023-03-14T08:18:58;7.30;99.90
17918;DHT22;9084;50.956;3.106;2023-03-14T08:21:23;7.30;99.90
17918;DHT22;9084;50.956;3.106;2023-03-14T08:23:51;7.30;99.90
17918;DHT22;9084;50.956;3.106;2023-03-14T08:26:17;7.30;99.90
17918;DHT22;9084;50.956;3.106;2023-03-14T08:28:45;7.40;99.90
17918;DHT22;9084;50.956;3.106;2023-03-14T08:31:13;7.50;99.90
17918;DHT22;9084;50.956;3.106;2023-03-14T08:33:39;7.60;99.90
17918;DHT22;9084;50.956;3.106;2023-03-14T08:36:08;7.60;99.90
17918;DHT22;9084;50.956;3.106;2023-03-14T08:38:33;7.60;99.90
17918;DHT22;9084;50.956;3.106;2023-03-14T08:41:00;7.50;99.90
17918;DHT22;9084;50.956;3.106;2023-03-14T08:43:27;7.50;99.90
17918;DHT22;9084;50.956;3.106;2023-03-14T08:45:53;7.50;99.90
17918;DHT22;9084;50.956;3.106;2023-03-14T08:48:21;7.50;99.90
17918;DHT22;9084;50.956;3.106;2023-03-14T08:50:47;7.50;99.90
17918;DHT22;9084;50.956;3.106;2023-03-14T08:53:15;7.40;99.90
17918;DHT22;9084;50.956;3.106;2023-03-14T08:55:46;7.40;99.90
17918;DHT22;9084;50.956;3.106;2023-03-14T08:58:14;7.40;99.90
17918;DHT22;9084;50.956;3.106;2023-03-14T09:00:40;7.40;99.90
17918;DHT22;9084;50.956;3.106;2023-03-14T09:03:05;7.50;99.90
17918;DHT22;9084;50.956;3.106;2023-03-14T09:05:33;7.60;99.90
17918;DHT22;9084;50.956;3.106;2023-03-14T09:08:02;7.60;99.90
17918;DHT22;9084;50.956;3.106;2023-03-14T09:10:27;7.60;99.90
17918;DHT22;9084;50.956;3.106;2023-03-14T09:12:59;7.60;99.90
17918;DHT22;9084;50.956;3.106;2023-03-14T09:15:27;7.60;99.90
17918;DHT22;9084;50.956;3.106;2023-03-14T09:17:52;7.70;99.90
17918;DHT22;9084;50.956;3.106;2023-03-14T09:20:21;7.70;99.90
17918;DHT22;9084;50.956;3.106;2023-03-14T09:22:46;7.80;99.90
17918;DHT22;9084;50.956;3.106;2023-03-14T09:25:14;7.90;99.90
17918;DHT22;9084;50.956;3.106;2023-03-14T09:27:45;8.00;99.90
17918;DHT22;9084;50.956;3.106;2023-03-14T09:30:11;8.00;99.90
17918;DHT22;9084;50.956;3.106;2023-03-14T09:32:41;8.10;99.90
17918;DHT22;9084;50.956;3.106;2023-03-14T09:35:12;8.10;99.90
17918;DHT22;9084;50.956;3.106;2023-03-14T09:37:40;8.20;99.90
17918;DHT22;9084;50.956;3.106;2023-03-14T09:40:12;8.10;99.90
17918;DHT22;9084;50.956;3.106;2023-03-14T09:42:39;8.00;99.90
17918;DHT22;9084;50.956;3.106;2023-03-14T09:45:11;7.80;99.90
17918;DHT22;9084;50.956;3.106;2023-03-14T09:47:38;7.60;99.90
17918;DHT22;9084;50.956;3.106;2023-03-14T09:50:13;7.50;99.90
17918;DHT22;9084;50.956;3.106;2023-03-14T09:52:40;7.50;99.90
17918;DHT22;9084;50.956;3.106;2023-03-14T09:57:39;7.40;99.90
17918;DHT22;9084;50.956;3.106;2023-03-14T10:00:18;7.50;99.90
17918;DHT22;9084;50.956;3.106;2023-03-14T10:03:00;7.40;99.90
17918;DHT22;9084;50.956;3.106;2023-03-14T10:05:35;7.30;99.90
17918;DHT22;9084;50.956;3.106;2023-03-14T10:08:00;7.30;99.90
17918;DHT22;9084;50.956;3.106;2023-03-14T10:10:28;7.20;99.90
17918;DHT22;9084;50.956;3.106;2023-03-14T10:13:17;7.10;99.90
17918;DHT22;9084;50.956;3.106;2023-03-14T10:15:55;7.10;99.90
17918;DHT22;9084;50.956;3.106;2023-03-14T10:18:24;6.90;99.90
17918;DHT22;9084;50.956;3.106;2023-03-14T10:21:17;6.80;99.90
17918;DHT22;9084;50.956;3.106;2023-03-14T10:23:46;6.80;99.90
17918;DHT22;9084;50.956;3.106;2023-03-14T10:26:24;6.80;99.90
17918;DHT22;9084;50.956;3.106;2023-03-14T10:29:11;6.70;99.90
17918;DHT22;9084;50.956;3.106;2023-03-14T10:31:52;6.60;99.90
17918;DHT22;9084;50.956;3.106;2023-03-14T10:34:26;6.50;99.90
17918;DHT22;9084;50.956;3.106;2023-03-14T10:36:58;6.60;99.90
17918;DHT22;9084;50.956;3.106;2023-03-14T10:39:28;6.60;99.90
17918;DHT22;9084;50.956;3.106;2023-03-14T10:44:45;6.60;99.90
17918;DHT22;9084;50.956;3.106;2023-03-14T10:47:17;6.70;99.90
17918;DHT22;9084;50.956;3.106;2023-03-14T10:49:46;6.70;99.90
17918;DHT22;9084;50.956;3.106;2023-03-14T10:52:27;6.70;99.90
17918;DHT22;9084;50.956;3.106;2023-03-14T10:55:02;6.70;99.90
17918;DHT22;9084;50.956;3.106;2023-03-14T10:57:27;6.60;99.90
17918;DHT22;9084;50.956;3.106;2023-03-14T10:59:55;6.50;99.90
17918;DHT22;9084;50.956;3.106;2023-03-14T11:05:43;6.40;99.90
17918;DHT22;9084;50.956;3.106;2023-03-14T11:11:29;6.10;99.90
17918;DHT22;9084;50.956;3.106;2023-03-14T11:14:07;6.10;99.90
17918;DHT22;9084;50.956;3.106;2023-03-14T11:19:47;6.20;99.90
17918;DHT22;9084;50.956;3.106;2023-03-14T11:22:27;6.20;99.90
17918;DHT22;9084;50.956;3.106;2023-03-14T11:30:54;6.60;99.90
17918;DHT22;9084;50.956;3.106;2023-03-14T11:33:35;6.80;99.90
17918;DHT22;9084;50.956;3.106;2023-03-14T11:36:10;7.00;99.90
17918;DHT22;9084;50.956;3.106;2023-03-14T11:38:46;7.20;99.90
17918;DHT22;9084;50.956;3.106;2023-03-14T11:41:20;7.40;99.90
17918;DHT22;9084;50.956;3.106;2023-03-14T11:43:58;7.60;99.90
17918;DHT22;9084;50.956;3.106;2023-03-14T11:46:34;7.60;99.90
17918;DHT22;9084;50.956;3.106;2023-03-14T11:51:56;7.40;99.90
17918;DHT22;9084;50.956;3.106;2023-03-14T11:54:41;7.30;99.90
17918;DHT22;9084;50.956;3.106;2023-03-14T11:57:17;7.30;99.90
17918;DHT22;9084;50.956;3.106;2023-03-14T12:05:40;6.90;99.90
17918;DHT22;9084;50.956;3.106;2023-03-14T12:08:29;6.80;99.90
17918;DHT22;9084;50.956;3.106;2023-03-14T12:13:47;6.70;99.90
17918;DHT22;9084;50.956;3.106;2023-03-14T12:18:50;6.40;99.90
17918;DHT22;9084;50.956;3.106;2023-03-14T12:21:16;6.40;99.90
17918;DHT22;9084;50.956;3.106;2023-03-14T12:23:53;6.40;99.90
17918;DHT22;9084;50.956;3.106;2023-03-14T12:26:22;6.50;99.90
17918;DHT22;9084;50.956;3.106;2023-03-14T12:44:43;6.70;99.90
17918;DHT22;9084;50.956;3.106;2023-03-14T12:49:50;6.50;99.90
17918;DHT22;9084;50.956;3.106;2023-03-14T12:52:29;6.40;99.90
17918;DHT22;9084;50.956;3.106;2023-03-14T13:00:42;6.00;99.90
17918;DHT22;9084;50.956;3.106;2023-03-14T13:03:20;5.80;99.90
17918;DHT22;9084;50.956;3.106;2023-03-14T13:06:03;5.80;99.90
17918;DHT22;9084;50.956;3.106;2023-03-14T13:08:41;5.80;99.90
17918;DHT22;9084;50.956;3.106;2023-03-14T13:11:22;5.90;99.90
17918;DHT22;9084;50.956;3.106;2023-03-14T13:13:55;6.00;99.90
17918;DHT22;9084;50.956;3.106;2023-03-14T13:16:22;6.20;99.90
17918;DHT22;9084;50.956;3.106;2023-03-14T13:18:59;6.30;99.90
17918;DHT22;9084;50.956;3.106;2023-03-14T13:21:34;6.30;99.90
17918;DHT22;9084;50.956;3.106;2023-03-14T13:24:01;6.40;99.90
17918;DHT22;9084;50.956;3.106;2023-03-14T13:26:42;6.50;99.90
17918;DHT22;9084;50.956;3.106;2023-03-14T13:29:32;6.50;99.90
17918;DHT22;9084;50.956;3.106;2023-03-14T13:32:17;6.50;99.90
17918;DHT22;9084;50.956;3.106;2023-03-14T13:34:45;6.40;99.90
17918;DHT22;9084;50.956;3.106;2023-03-14T13:37:20;6.30;99.90
17918;DHT22;9084;50.956;3.106;2023-03-14T13:39:50;6.00;99.90
17918;DHT22;9084;50.956;3.106;2023-03-14T13:42:16;5.90;99.90
17918;DHT22;9084;50.956;3.106;2023-03-14T13:44:42;5.70;99.90
17918;DHT22;9084;50.956;3.106;2023-03-14T13:47:18;5.60;99.90
17918;DHT22;9084;50.956;3.106;2023-03-14T13:49:48;5.40;99.90
17918;DHT22;9084;50.956;3.106;2023-03-14T13:54:58;5.30;99.90
17918;DHT22;9084;50.956;3.106;2023-03-14T13:57:24;5.20;99.90
17918;DHT22;9084;50.956;3.106;2023-03-14T14:00:06;5.10;99.90
17918;DHT22;9084;50.956;3.106;2023-03-14T14:02:36;5.00;99.90
17918;DHT22;9084;50.956;3.106;2023-03-14T14:05:04;5.00;99.90
17918;DHT22;9084;50.956;3.106;2023-03-14T14:07:30;5.00;99.90
17918;DHT22;9084;50.956;3.106;2023-03-14T14:10:00;5.00;99.90
17918;DHT22;9084;50.956;3.106;2023-03-14T14:12:54;5.10;99.90
17918;DHT22;9084;50.956;3.106;2023-03-14T14:15:26;5.10;99.90
17918;DHT22;9084;50.956;3.106;2023-03-14T14:17:59;5.20;99.90
17918;DHT22;9084;50.956;3.106;2023-03-14T14:20:38;5.30;99.90
17918;DHT22;9084;50.956;3.106;2023-03-14T14:23:09;5.40;99.90
17918;DHT22;9084;50.956;3.106;2023-03-14T14:25:36;5.50;99.90
17918;DHT22;9084;50.956;3.106;2023-03-14T14:28:27;5.60;99.90
17918;DHT22;9084;50.956;3.106;2023-03-14T14:31:20;5.70;99.90
17918;DHT22;9084;50.956;3.106;2023-03-14T14:34:17;5.80;99.90
17918;DHT22;9084;50.956;3.106;2023-03-14T14:36:44;6.00;99.90
17918;DHT22;9084;50.956;3.106;2023-03-14T14:39:28;6.10;99.90
17918;DHT22;9084;50.956;3.106;2023-03-14T14:41:56;6.30;99.90
17918;DHT22;9084;50.956;3.106;2023-03-14T14:44:29;6.30;99.90
17918;DHT22;9084;50.956;3.106;2023-03-14T14:46:56;6.20;99.90
17918;DHT22;9084;50.956;3.106;2023-03-14T14:49:30;6.20;99.90
17918;DHT22;9084;50.956;3.106;2023-03-14T14:52:03;6.30;99.90
17918;DHT22;9084;50.956;3.106;2023-03-14T14:54:59;6.30;99.90
17918;DHT22;9084;50.956;3.106;2023-03-14T14:57:32;6.40;99.90
17918;DHT22;9084;50.956;3.106;2023-03-14T15:00:07;6.40;99.90
17918;DHT22;9084;50.956;3.106;2023-03-14T15:02:40;6.50;99.90
17918;DHT22;9084;50.956;3.106;2023-03-14T15:05:21;6.50;99.90
17918;DHT22;9084;50.956;3.106;2023-03-14T15:07:51;6.70;99.90
17918;DHT22;9084;50.956;3.106;2023-03-14T15:10:21;6.80;99.90
17918;DHT22;9084;50.956;3.106;2023-03-14T15:12:50;7.10;99.90
17918;DHT22;9084;50.956;3.106;2023-03-14T15:15:19;7.20;99.90
17918;DHT22;9084;50.956;3.106;2023-03-14T15:17:45;7.30;99.90
17918;DHT22;9084;50.956;3.106;2023-03-14T15:20:13;7.30;99.90
17918;DHT22;9084;50.956;3.106;2023-03-14T15:22:40;7.20;99.90
17918;DHT22;9084;50.956;3.106;2023-03-14T15:25:06;7.40;99.90
17918;DHT22;9084;50.956;3.106;2023-03-14T15:27:35;7.50;99.90
17918;DHT22;9084;50.956;3.106;2023-03-14T15:30:01;7.60;99.90
17918;DHT22;9084;50.956;3.106;2023-03-14T15:32:29;7.50;99.90
17918;DHT22;9084;50.956;3.106;2023-03-14T15:34:57;7.50;99.90
17918;DHT22;9084;50.956;3.106;2023-03-14T15:37:23;7.40;99.90
17918;DHT22;9084;50.956;3.106;2023-03-14T15:39:51;7.20;99.90
17918;DHT22;9084;50.956;3.106;2023-03-14T15:42:23;7.10;99.90
17918;DHT22;9084;50.956;3.106;2023-03-14T15:44:49;7.10;99.90
17918;DHT22;9084;50.956;3.106;2023-03-14T15:47:14;7.10;99.90
17918;DHT22;9084;50.956;3.106;2023-03-14T15:49:45;7.10;99.90
17918;DHT22;9084;50.956;3.106;2023-03-14T15:52:11;7.30;99.90
17918;DHT22;9084;50.956;3.106;2023-03-14T15:54:38;7.30;99.90
17918;DHT22;9084;50.956;3.106;2023-03-14T15:57:04;7.30;99.90
17918;DHT22;9084;50.956;3.106;2023-03-14T15:59:31;7.40;99.90
17918;DHT22;9084;50.956;3.106;2023-03-14T16:02:05;7.50;99.90
17918;DHT22;9084;50.956;3.106;2023-03-14T16:04:31;7.50;99.90
17918;DHT22;9084;50.956;3.106;2023-03-14T16:06:58;7.60;99.90
17918;DHT22;9084;50.956;3.106;2023-03-14T16:09:27;7.70;99.90
17918;DHT22;9084;50.956;3.106;2023-03-14T16:11:53;7.80;99.90
17918;DHT22;9084;50.956;3.106;2023-03-14T16:14:19;7.80;99.90
17918;DHT22;9084;50.956;3.106;2023-03-14T16:16:44;7.70;99.90
17918;DHT22;9084;50.956;3.106;2023-03-14T16:19:10;7.60;99.90
17918;DHT22;9084;50.956;3.106;2023-03-14T16:21:36;7.60;99.90
17918;DHT22;9084;50.956;3.106;2023-03-14T16:24:05;7.50;99.90
17918;DHT22;9084;50.956;3.106;2023-03-14T16:26:31;7.50;99.90
17918;DHT22;9084;50.956;3.106;2023-03-14T16:28:59;7.40;99.90
17918;DHT22;9084;50.956;3.106;2023-03-14T16:31:25;7.40;99.90
17918;DHT22;9084;50.956;3.106;2023-03-14T16:33:53;7.30;99.90
17918;DHT22;9084;50.956;3.106;2023-03-14T16:36:18;7.30;99.90
17918;DHT22;9084;50.956;3.106;2023-03-14T16:38:44;7.30;99.90
17918;DHT22;9084;50.956;3.106;2023-03-14T16:41:15;7.30;99.90
17918;DHT22;9084;50.956;3.106;2023-03-14T16:43:46;7.30;99.90
17918;DHT22;9084;50.956;3.106;2023-03-14T16:46:17;7.40;99.90
17918;DHT22;9084;50.956;3.106;2023-03-14T16:48:43;7.30;99.90
17918;DHT22;9084;50.956;3.106;2023-03-14T16:51:09;7.30;99.90
17918;DHT22;9084;50.956;3.106;2023-03-14T16:53:35;7.20;99.90
17918;DHT22;9084;50.956;3.106;2023-03-14T16:56:06;7.10;99.90
17918;DHT22;9084;50.956;3.106;2023-03-14T16:58:31;7.00;99.90
17918;DHT22;9084;50.956;3.106;2023-03-14T17:01:03;6.90;99.90
17918;DHT22;9084;50.956;3.106;2023-03-14T17:03:38;6.80;99.90
17918;DHT22;9084;50.956;3.106;2023-03-14T17:06:04;6.80;99.90
17918;DHT22;9084;50.956;3.106;2023-03-14T17:08:33;6.60;99.90
17918;DHT22;9084;50.956;3.106;2023-03-14T17:11:03;6.60;99.90
17918;DHT22;9084;50.956;3.106;2023-03-14T17:13:29;6.50;99.90
17918;DHT22;9084;50.956;3.106;2023-03-14T17:15:58;6.50;99.90
17918;DHT22;9084;50.956;3.106;2023-03-14T17:18:28;6.40;99.90